createdAt,value
2023-01-15T00:01:21.068Z,76.50150299551746
2023-01-15T00:04:18.486Z,76.38406923733987
2023-01-15T00:07:17.013Z,75.83376431820871
2023-01-15T00:11:16.861Z,75.74822908855715
2023-01-15T00:14:16.599Z,76.48558765661888
2023-01-15T00:17:16.337Z,76.53027878040949
2023-01-15T00:21:15.735Z,76.71689259154736
2023-01-15T00:31:16.109Z,78.228267979776
2023-01-15T00:34:16.517Z,78.45152932668749
2023-01-15T00:37:16.473Z,78.62830598470931
2023-01-15T00:41:16.026Z,78.24046234692766
2023-01-15T00:44:16.880Z,78.39027180762461
2023-01-15T00:47:16.444Z,78.61342983068495
2023-01-15T00:51:16.778Z,78.41607960608907
2023-01-15T00:54:17.482Z,78.03436203072462
2023-01-15T00:57:17.285Z,77.87036201332229
2023-01-15T01:01:16.121Z,77.92683859188887
2023-01-15T01:04:16.729Z,78.09162638156215
2023-01-15T01:07:16.804Z,78.60807573275683
2023-01-15T01:11:18.117Z,79.35061390945245
2023-01-15T01:14:16.600Z,79.59591828775648
2023-01-15T01:17:16.355Z,79.83221358143005
2023-01-15T01:21:16.095Z,79.09769634780697
2023-01-15T01:24:18.311Z,78.96132316032217
2023-01-15T01:27:18.802Z,78.71063570932336
2023-01-15T01:31:16.226Z,77.79205832490946
2023-01-15T01:34:16.468Z,77.97559040100896
2023-01-15T01:37:16.519Z,77.99097266090455
2023-01-15T01:41:16.332Z,77.97699669750068
2023-01-15T01:45:25.859Z,78.21556450157821
2023-01-15T01:47:19.404Z,78.7551424572579
2023-01-15T01:51:17.858Z,78.66271458561214
2023-01-15T01:54:20.495Z,78.6097554969072
2023-01-15T01:57:17.719Z,78.66869778765053
2023-01-15T02:01:17.249Z,78.94873771444476
2023-01-15T02:04:19.925Z,79.13870278534112
2023-01-15T02:07:17.396Z,79.5466593595044
2023-01-15T02:11:19.145Z,79.85091172748582
2023-01-15T02:14:23.070Z,80.15724462368335
2023-01-15T02:17:24.712Z,80.13939800098676
2023-01-15T02:21:24.032Z,79.88142437224627
2023-01-15T02:24:26.559Z,80.28114971769057
2023-01-15T02:27:18.814Z,80.11726733038425
2023-01-15T02:31:20.509Z,80.23935420907138
2023-01-15T02:34:21.964Z,80.52258005074444
2023-01-15T02:37:23.100Z,80.35129051774963
2023-01-15T02:41:35.913Z,80.22466248308045
2023-01-15T02:44:19.455Z,80.5625551476926
2023-01-15T02:47:18.809Z,80.57465449655275
2023-01-15T02:51:21.206Z,80.7614141706112
2023-01-15T02:54:17.722Z,80.76465576792725
2023-01-15T02:57:21.137Z,81.05765654107397
2023-01-15T03:01:20.383Z,81.30377134588589
2023-01-15T03:04:21.778Z,81.4756101192811
2023-01-15T03:07:20.943Z,80.92539906402155
2023-01-15T03:11:18.564Z,80.94609676578736
2023-01-15T03:14:20.925Z,81.57510324906653
2023-01-15T03:17:21.194Z,81.74308771153646
2023-01-15T03:21:20.219Z,82.58143427383845
2023-01-15T03:24:24.150Z,83.01116825245056
2023-01-15T03:27:16.270Z,82.70006233656875
2023-01-15T03:31:15.925Z,82.17275895392447
2023-01-15T03:34:16.196Z,82.02303699564185
2023-01-15T03:37:17.348Z,82.27702017792538
2023-01-15T03:41:23.872Z,82.06132059064113
2023-01-15T03:44:26.995Z,82.24033890637934
2023-01-15T03:47:28.133Z,82.53651824600627
2023-01-15T03:51:22.055Z,82.37616986258777
2023-01-15T03:54:25.093Z,82.58154388548537
2023-01-15T03:57:25.888Z,82.86529121429504
2023-01-15T04:01:21.293Z,82.42080397949434
2023-01-15T04:04:17.801Z,82.65686812717593
2023-01-15T04:07:17.791Z,83.50278561488395
2023-01-15T04:11:22.535Z,84.81251800417536
2023-01-15T04:14:16.192Z,85.49809564410853
2023-01-15T04:17:16.255Z,85.21965431556137
2023-01-15T04:21:15.999Z,84.20775724766837
2023-01-15T04:24:16.494Z,84.1096137977756
2023-01-15T04:27:16.420Z,84.18639744036638
2023-01-15T04:31:16.976Z,84.71654633243347
2023-01-15T04:34:16.861Z,85.20610317334533
2023-01-15T04:37:18.659Z,85.51638193213208
2023-01-15T04:51:17.043Z,86.0415105925806
2023-01-15T04:54:17.756Z,85.9620182484457
2023-01-15T04:57:16.856Z,85.81065568826786
2023-01-15T05:01:17.431Z,85.4660337321112
2023-01-15T05:04:16.734Z,85.4111452400825
2023-01-15T05:07:16.531Z,85.79178930716846
2023-01-15T05:11:16.702Z,86.02540661242232
2023-01-15T05:14:16.871Z,86.20085268136944
2023-01-15T05:17:17.412Z,86.2884655136359
2023-01-15T05:21:19.428Z,86.56370382610638
2023-01-15T05:24:17.304Z,87.00118594048828
2023-01-15T05:27:16.174Z,87.15399908087056
2023-01-15T05:31:18.348Z,86.63912559010191
2023-01-15T05:34:16.391Z,86.30984906010703
2023-01-15T05:37:16.232Z,85.57540389511061
2023-01-15T05:42:21.020Z,85.40309673993838
2023-01-15T05:44:18.805Z,85.96464089943524
2023-01-15T05:47:16.223Z,86.32580870904269
2023-01-15T05:51:16.632Z,86.03559392649393
2023-01-15T05:54:22.583Z,85.7798694963386
2023-01-15T05:57:16.854Z,85.99508904366023
2023-01-15T06:01:16.864Z,87.13071329771051
2023-01-15T06:04:22.198Z,86.88251325315962
2023-01-15T06:07:18.371Z,86.0965199324395
2023-01-15T06:11:16.233Z,86.3379795064329
2023-01-15T06:14:16.895Z,86.04346189853028
2023-01-15T06:17:16.635Z,85.70438716626988
2023-01-15T06:21:17.165Z,85.0293320360136
2023-01-15T06:24:18.217Z,84.9535480940472
2023-01-15T06:27:16.871Z,85.04352304999281
2023-01-15T06:31:18.765Z,85.35760685638779
2023-01-15T06:34:16.831Z,85.51767316631582
2023-01-15T06:37:16.870Z,85.91296438049302
2023-01-15T06:51:19.796Z,88.01818113528391
2023-01-15T06:54:16.744Z,87.8648567038323
2023-01-15T06:57:17.022Z,87.83155186050328
2023-01-15T07:01:16.746Z,87.73453498078956
2023-01-15T07:04:17.346Z,87.75561136487156
2023-01-15T07:07:18.483Z,87.5027856113549
2023-01-15T07:11:17.994Z,88.13452539315256
2023-01-15T07:14:17.693Z,87.94630142218544
2023-01-15T07:17:16.641Z,87.9298226413581
2023-01-15T07:21:16.395Z,87.70337288333693
2023-01-15T07:24:17.192Z,87.35151376706087
2023-01-15T07:27:16.966Z,87.1937978037405
2023-01-15T07:31:16.490Z,86.92107209298582
2023-01-15T07:34:17.247Z,86.3356349135587
2023-01-15T07:37:16.803Z,86.44827885570163
2023-01-15T07:51:16.024Z,87.1121248154295
2023-01-15T07:54:16.451Z,86.25640319113829
2023-01-15T07:57:20.231Z,86.11171501065093
2023-01-15T08:01:16.957Z,87.29825094587059
2023-01-15T08:04:16.844Z,88.45484800857315
2023-01-15T08:07:16.713Z,89.2418901722226
2023-01-15T08:21:18.139Z,96.03558320701259
2023-01-15T08:24:19.654Z,96.48875330234596
2023-01-15T08:27:20.397Z,96.43991165436125
2023-01-15T08:31:19.545Z,95.79013800748896
2023-01-15T08:34:25.167Z,95.82446732130416
2023-01-15T08:37:19.944Z,95.89409394523703
2023-01-15T08:41:16.828Z,95.47769469396202
2023-01-15T08:44:17.382Z,95.40441372153013
2023-01-15T08:47:17.618Z,94.70253127191096
2023-01-15T08:51:16.901Z,94.32556629657134
2023-01-15T08:54:18.884Z,94.49421092297654
2023-01-15T08:57:17.093Z,94.88819435108299
2023-01-15T09:01:22.130Z,95.37535051922836
2023-01-15T09:04:21.759Z,94.81733874843458
2023-01-15T09:07:19.355Z,94.34674659349055
2023-01-15T09:11:22.973Z,93.50826600116665
2023-01-15T09:14:55.354Z,92.8163365957071
2023-01-15T09:17:18.329Z,92.36163321441728
2023-01-15T09:21:17.345Z,91.47229132666024
2023-01-15T09:24:18.377Z,91.66620850421245
2023-01-15T09:27:18.599Z,91.70220876747476
2023-01-15T09:31:17.307Z,91.32990826606148
2023-01-15T09:34:24.867Z,91.58627231584498
2023-01-15T09:37:21.449Z,92.7888590903008
2023-01-15T09:42:34.818Z,93.01590159871567
2023-01-15T09:44:31.570Z,94.43639502558862
2023-01-15T09:47:25.853Z,95.3298480743628
2023-01-15T09:51:29.264Z,96.33408712421098
2023-01-15T09:54:31.753Z,94.27116616332
2023-01-15T09:57:24.969Z,93.48160967636849
2023-01-15T10:01:26.867Z,93.34285809351134
2023-01-15T10:04:40.215Z,92.61484948908527
2023-01-15T10:07:42.210Z,92.85178046274993
2023-01-15T10:11:38.037Z,92.52896369041306
2023-01-15T10:14:34.860Z,91.63570443299842
2023-01-15T10:17:26.102Z,91.51142741107459
2023-01-15T10:21:31.008Z,91.53318786577981
2023-01-15T10:24:22.979Z,91.1100071767508
2023-01-15T10:27:20.584Z,89.71377235162919
2023-01-15T10:31:21.853Z,88.60290643106796
2023-01-15T10:35:04.282Z,89.0411879639475
2023-01-15T10:37:28.076Z,89.26341795800747
2023-01-15T10:41:44.617Z,89.70489503386578
2023-01-15T10:44:38.420Z,89.56621699558127
2023-01-15T10:47:32.527Z,89.53073275773956
2023-01-15T10:51:29.802Z,89.78740075159915
2023-01-15T10:54:29.304Z,89.01335983426227
2023-01-15T10:57:38.244Z,89.14023840688183
2023-01-15T11:01:26.647Z,88.39727875260196
2023-01-15T11:04:19.454Z,88.26562182843689
2023-01-15T11:07:21.148Z,87.94656487338642
2023-01-15T11:11:25.421Z,87.55346318205277
2023-01-15T11:31:24.943Z,85.24236402900969
2023-01-15T11:34:22.568Z,85.10730345659903
2023-01-15T11:37:19.559Z,85.19262528221033
2023-01-15T11:41:33.627Z,84.77230396304603
2023-01-15T11:51:50.316Z,84.97209215434816
2023-01-15T11:54:31.987Z,85.16387266736217
2023-01-15T11:57:31.878Z,85.06095079383087
2023-01-15T12:01:25.146Z,84.67990763007636
2023-01-15T12:04:32.351Z,84.30418152325541
2023-01-15T12:07:18.625Z,84.68392751655105
2023-01-15T12:11:31.509Z,83.79779364556035
2023-01-15T12:15:44.940Z,83.35421331610821
2023-01-15T12:17:37.673Z,83.39289852851905
2023-01-15T12:21:33.006Z,83.20318838844453
2023-01-15T12:24:35.631Z,82.67117672722691
2023-01-15T12:27:46.303Z,82.13684230178296
2023-01-15T12:31:23.543Z,81.61651642976238
2023-01-15T12:34:23.043Z,81.61165493808664
2023-01-15T12:37:25.411Z,81.61660192590229
2023-01-15T12:41:23.165Z,81.46664527720235
2023-01-15T12:45:26.302Z,81.55419330629455
2023-01-15T12:47:21.743Z,81.16080938896616
2023-01-15T12:51:25.631Z,81.44715879121965
2023-01-15T12:54:28.145Z,81.47031615169293
2023-01-15T12:57:29.713Z,81.72874477819931
2023-01-15T13:01:25.768Z,81.6222062969049
2023-01-15T13:04:24.707Z,81.60539315561779
2023-01-15T13:07:28.092Z,81.6928703092251
2023-01-15T13:11:29.191Z,81.9693917935302
2023-01-15T13:14:23.543Z,82.51449119679405
2023-01-15T13:17:31.160Z,82.51367523813495
2023-01-15T13:21:17.556Z,82.11918668840741
2023-01-15T13:25:06.931Z,81.8047564880427
2023-01-15T13:27:37.575Z,81.88169543570764
2023-01-15T13:31:36.219Z,81.64508671744376
2023-01-15T13:34:29.703Z,81.6539699217022
2023-01-15T13:37:36.323Z,81.64136808887802
2023-01-15T13:42:51.377Z,81.36489244293365
2023-01-15T13:45:04.746Z,81.09200858950135
2023-01-15T13:47:26.046Z,81.37280498206204
2023-01-15T13:51:28.075Z,81.13052786517642
2023-01-15T13:54:23.887Z,81.21330744261168
2023-01-15T13:57:42.735Z,80.75714458445715
2023-01-15T14:01:43.850Z,80.44757977522372
2023-01-15T14:04:53.986Z,80.58950759859788
2023-01-15T14:07:47.437Z,80.28448438466549
2023-01-15T14:12:01.354Z,80.34913147962666
2023-01-15T14:21:29.821Z,80.9115983090254
2023-01-15T14:24:41.488Z,80.28167875378969
2023-01-15T14:27:34.110Z,79.25438322772891
2023-01-15T14:31:42.320Z,80.44495171914349
2023-01-15T14:34:24.795Z,79.74435565060523
2023-01-15T14:37:25.106Z,80.06214464945616
2023-01-15T14:41:36.440Z,80.55659079056696
2023-01-15T14:44:33.170Z,80.19934982870001
2023-01-15T14:47:26.596Z,80.74891022062747
2023-01-15T14:51:49.254Z,80.64984182585681
2023-01-15T14:54:28.383Z,80.22118829337126
2023-01-15T14:57:27.069Z,79.50762285326556
2023-01-15T15:01:34.146Z,78.188887913937
2023-01-15T15:04:37.363Z,79.21334703060289
2023-01-15T15:07:35.122Z,79.26865188813963
2023-01-15T15:12:45.733Z,79.7187834882614
2023-01-15T15:14:28.616Z,79.36367476673914
2023-01-15T15:17:35.414Z,79.38756096193795
2023-01-15T15:31:49.097Z,76.67401028154119
2023-01-15T15:34:30.491Z,77.14366205338995
2023-01-15T15:37:48.903Z,77.38885075470579
2023-01-15T15:51:38.204Z,77.65517140150179
2023-01-15T15:54:22.942Z,77.23676425482493
2023-01-15T15:57:23.730Z,77.30418496059171
2023-01-15T16:01:27.647Z,77.1319430515329
2023-01-15T16:04:28.184Z,77.19160573599994
2023-01-15T16:07:33.852Z,77.1910586289251
2023-01-15T16:11:39.223Z,77.06794422667525
2023-01-15T16:14:45.429Z,77.50328712019628
2023-01-15T16:17:29.982Z,77.73268833211063
2023-01-15T16:21:26.131Z,77.67287882544936
2023-01-15T16:24:24.324Z,78.23376315550597
2023-01-15T16:27:51.352Z,78.566604128026
2023-01-15T16:41:21.315Z,79.06096964092293
2023-01-15T16:44:35.873Z,79.85737550397658
2023-01-15T16:47:22.946Z,79.44226858691883
2023-01-15T16:51:35.142Z,79.41830081759974
2023-01-15T16:54:55.375Z,79.49816478239121
2023-01-15T16:57:29.067Z,79.48964186001261
2023-01-15T17:01:33.614Z,79.1448180376565
2023-01-15T17:04:30.901Z,79.24729273211372
2023-01-15T17:07:30.975Z,79.13007022084109
2023-01-15T17:21:31.891Z,79.39721735903953
2023-01-15T17:24:29.590Z,79.9253735910321
2023-01-15T17:27:22.524Z,80.26880515376388
2023-01-15T17:31:27.339Z,80.16860548617062
2023-01-15T17:34:25.462Z,80.85502347704372
2023-01-15T17:37:34.386Z,80.46766990578163
2023-01-15T17:41:34.052Z,80.51503794604756
2023-01-15T17:44:52.502Z,80.40467866680369
2023-01-15T17:51:23.777Z,79.24033472209027
2023-01-15T18:11:16.114Z,80.53843031420331
2023-01-15T18:14:16.585Z,81.10847933542622
2023-01-15T18:17:16.546Z,80.80714606154115
2023-01-15T18:21:16.285Z,81.00361485680345
2023-01-15T18:24:17.578Z,81.19492377451142
2023-01-15T18:27:17.489Z,81.43339387082328
2023-01-15T18:31:16.185Z,80.61287730245778
2023-01-15T18:34:16.751Z,81.0815684151168
2023-01-15T18:37:16.686Z,80.92042219563874
2023-01-15T18:46:43.621Z,80.83160299098357
2023-01-15T18:47:17.823Z,81.16301868861925
2023-01-15T18:51:16.339Z,80.73250926628819
2023-01-15T18:54:16.748Z,80.88286728351653
2023-01-15T18:57:16.977Z,81.01562199563676
2023-01-15T19:01:16.629Z,81.30956188718089
2023-01-15T19:04:18.984Z,81.2590966545132
2023-01-15T19:07:17.084Z,80.48017490669898
2023-01-15T19:11:16.675Z,79.88123681898593
2023-01-15T19:21:18.881Z,79.87564224447097
2023-01-15T19:24:16.985Z,78.56142200335927
2023-01-15T19:27:17.201Z,79.03431732937521
2023-01-15T19:31:48.279Z,78.87949709980954
2023-01-15T19:34:32.995Z,79.5493141003751
2023-01-15T19:37:16.356Z,79.62498082057314
2023-01-15T19:51:16.398Z,78.63059031211317
2023-01-15T19:54:55.960Z,78.27759328997773
2023-01-15T19:57:20.766Z,77.65474366525102
2023-01-15T20:01:18.062Z,74.07617208510383
2023-01-15T20:04:17.157Z,74.62566323125763
2023-01-15T20:07:17.013Z,75.35404569238366
2023-01-15T20:11:16.995Z,75.87226454557675
2023-01-15T20:14:16.904Z,76.13547918682735
2023-01-15T20:17:17.471Z,76.14612494619855
2023-01-15T20:21:17.525Z,73.68420608961792
2023-01-15T20:24:16.947Z,75.21485937011279
2023-01-15T20:27:17.058Z,75.12377316090394
2023-01-15T20:31:18.105Z,69.94282513367885
2023-01-15T20:34:16.763Z,70.98505093684177
2023-01-15T20:37:17.072Z,73.79170531235422
2023-01-15T20:51:18.446Z,69.83990802898785
2023-01-15T20:54:17.474Z,66.74047896935467
2023-01-15T20:57:16.917Z,66.0120768804835
2023-01-15T21:01:16.295Z,67.07081337188113
2023-01-15T21:04:16.522Z,67.11619494042371
2023-01-15T21:07:16.716Z,65.27531765496543
2023-01-15T21:11:16.218Z,65.21657882515287
2023-01-15T21:14:16.664Z,64.79741789248514
2023-01-15T21:17:16.965Z,64.65780811066314
2023-01-15T21:21:18.229Z,65.52397311219181
2023-01-15T21:31:16.035Z,66.65940327619238
2023-01-15T21:34:17.195Z,66.87962649535393
2023-01-15T21:37:16.888Z,67.20608436059752
2023-01-15T21:41:16.743Z,67.39087041980231
2023-01-15T21:44:43.943Z,67.1839043091938
2023-01-15T21:47:18.507Z,67.15971756178764
2023-01-15T21:51:15.968Z,67.31746235235244
2023-01-15T21:54:16.340Z,65.65841769452584
2023-01-15T21:57:16.416Z,65.73891652128644
2023-01-15T22:01:18.335Z,65.75171477351236
2023-01-15T22:04:16.501Z,65.29175904686124
2023-01-15T22:07:17.551Z,65.07301816706297
2023-01-15T22:11:16.160Z,64.88284478080827
2023-01-15T22:14:19.148Z,64.761514470139
2023-01-15T22:17:16.619Z,64.5824875905484
2023-01-15T22:21:16.138Z,64.53142664053746
2023-01-15T22:24:17.513Z,64.76518870905466
2023-01-15T22:27:16.821Z,64.84532096982463
2023-01-15T22:31:18.187Z,64.5911945830084
2023-01-15T22:34:17.733Z,63.849571488195814
2023-01-15T22:37:17.316Z,64.38373752269818
2023-01-15T22:42:24.256Z,64.74935132504038
2023-01-15T22:44:15.886Z,63.91208138989737
2023-01-15T22:47:17.682Z,63.96271117796181
2023-01-15T22:51:15.753Z,64.67133248171743
2023-01-15T22:54:18.081Z,64.74524856364806
2023-01-15T22:57:17.261Z,65.14909113747395
2023-01-15T23:01:16.348Z,65.95553337296508
2023-01-15T23:04:18.621Z,65.80159971747355
2023-01-15T23:07:15.891Z,65.91475065651451
2023-01-15T23:11:16.217Z,65.87355909499414
2023-01-15T23:14:17.741Z,65.76014964503256
2023-01-15T23:17:15.981Z,65.46188530925511
2023-01-15T23:21:20.390Z,65.47151432143741
2023-01-15T23:24:16.618Z,66.10119332902771
2023-01-15T23:27:16.686Z,66.15342640534332
2023-01-15T23:31:17.396Z,64.9427906924807
2023-01-15T23:34:16.829Z,64.31172830617716
2023-01-15T23:37:17.087Z,64.55961294033263
2023-01-15T23:41:18.619Z,65.66665179005619
2023-01-15T23:51:16.238Z,67.56286165769212
2023-01-15T23:54:16.595Z,67.28091019748767
2023-01-15T23:57:16.511Z,67.04220484642927
